Time;durP1;ratioP1;P1;durP2;ratioP2;P2;SDS_P1;SDS_P2;PMS_P1;PMS_P2;Temp;Humidity;BMP_temperature;BMP_pressure;BME280_temperature;BME280_humidity;BME280_pressure;Samples;Min_cycle;Max_cycle;Signal;HPM_P1;HPM_P2
2023/02/15 00:01:36;;;;;;;19.27;5.70;;;1.10;82.00;;;;;;5008507;28;20495;-77
2023/02/15 00:04:04;;;;;;;14.27;5.60;;;1.00;96.50;;;;;;5009587;28;20029;-76
2023/02/15 00:06:30;;;;;;;10.50;5.95;;;;;;;;;;5008705;28;20034;-76
2023/02/15 00:08:56;;;;;;;14.55;4.95;;;1.00;91.10;;;;;;5009116;28;20113;-76
2023/02/15 00:11:40;;;;;;;18.23;6.55;;;;;;;;;;5009145;28;20109;-76
2023/02/15 00:14:21;;;;;;;11.18;6.10;;;1.20;84.80;;;;;;5008841;28;20117;-76
2023/02/15 00:16:48;;;;;;;18.10;7.88;;;1.10;85.20;;;;;;5008837;28;20026;-76
2023/02/15 00:19:16;;;;;;;10.77;5.22;;;1.10;83.00;;;;;;5009197;28;20025;-77
2023/02/15 00:21:42;;;;;;;14.30;5.95;;;1.00;86.10;;;;;;5008433;28;20044;-76
2023/02/15 00:24:10;;;;;;;18.98;5.90;;;1.20;81.30;;;;;;5009470;28;20030;-76
2023/02/15 00:26:37;;;;;;;9.10;4.78;;;1.10;96.30;;;;;;5008738;28;20522;-75
2023/02/15 00:29:03;;;;;;;10.35;4.18;;;;;;;;;;5009097;28;20030;-76
2023/02/15 00:31:30;;;;;;;9.27;3.53;;;;;;;;;;5024063;28;20022;-76
2023/02/15 00:34:00;;;;;;;7.30;4.40;;;0.90;96.40;;;;;;5008746;28;20059;-76
2023/02/15 00:36:26;;;;;;;8.05;5.10;;;0.90;96.30;;;;;;5008690;28;20179;-76
2023/02/15 00:38:52;;;;;;;9.50;3.78;;;;;;;;;;5009144;28;20418;-77
2023/02/15 00:41:18;;;;;;;10.73;4.07;;;0.80;96.60;;;;;;5008720;28;20018;-76
2023/02/15 00:43:43;;;;;;;12.73;6.65;;;0.60;96.80;;;;;;5008731;28;20026;-76
2023/02/15 00:46:09;;;;;;;4.95;4.32;;;0.80;96.60;;;;;;5008786;28;20057;-76
2023/02/15 00:48:35;;;;;;;7.00;4.15;;;;;;;;;;5008787;28;20451;-77
2023/02/15 00:51:01;;;;;;;7.35;4.30;;;0.90;84.90;;;;;;5008478;28;20026;-76
2023/02/15 00:53:28;;;;;;;9.27;4.18;;;0.90;92.40;;;;;;5008236;28;20137;-76
2023/02/15 00:55:54;;;;;;;6.55;3.97;;;;;;;;;;5008892;28;20120;-76
2023/02/15 00:58:20;;;;;;;11.30;5.50;;;;;;;;;;5008569;28;20459;-77
2023/02/15 01:00:47;;;;;;;10.40;5.05;;;0.70;83.10;;;;;;4989407;28;20036;-76
2023/02/15 01:03:14;;;;;;;6.63;3.55;;;0.50;93.40;;;;;;5005058;28;20037;-76
2023/02/15 01:05:41;;;;;;;5.90;3.15;;;;;;;;;;5012561;28;20402;-76
2023/02/15 01:08:07;;;;;;;6.28;3.72;;;;;;;;;;5012192;28;20068;-76
2023/02/15 01:10:34;;;;;;;6.30;4.63;;;0.40;88.70;;;;;;5012147;28;20084;-77
2023/02/15 01:13:00;;;;;;;7.68;4.90;;;;;;;;;;5012284;28;20040;-76
2023/02/15 01:15:25;;;;;;;13.85;8.23;;;0.20;99.80;;;;;;5012235;28;20464;-76
2023/02/15 01:17:53;;;;;;;9.20;5.03;;;;;;;;;;5011978;28;20033;-76
2023/02/15 01:20:20;;;;;;;13.38;6.05;;;-0.20;88.50;;;;;;5011820;28;20382;-77
2023/02/15 01:22:46;;;;;;;17.73;6.30;;;0.80;92.80;;;;;;5011763;28;20025;-76
2023/02/15 01:25:12;;;;;;;12.73;6.43;;;;;;;;;;5011638;28;20057;-77
2023/02/15 01:27:38;;;;;;;9.00;5.95;;;0.40;99.20;;;;;;5026554;28;20034;-76
2023/02/15 01:30:04;;;;;;;15.55;6.72;;;0.40;94.70;;;;;;5012041;28;20022;-76
2023/02/15 01:32:30;;;;;;;10.77;5.57;;;0.70;92.40;;;;;;5011728;28;20526;-77
2023/02/15 01:34:56;;;;;;;6.75;4.15;;;;;;;;;;5012068;28;20030;-76
2023/02/15 01:37:22;;;;;;;6.82;4.63;;;;;;;;;;5011778;28;20491;-76
2023/02/15 01:39:48;;;;;;;6.32;4.25;;;;;;;;;;5011666;28;20030;-76
2023/02/15 01:42:21;;;;;;;6.80;4.05;;;0.50;85.20;;;;;;5011808;28;20034;-76
2023/02/15 01:44:47;;;;;;;14.02;4.93;;;0.80;97.80;;;;;;5011568;28;20407;-76
2023/02/15 01:47:17;;;;;;;17.27;5.72;;;0.40;86.40;;;;;;5011370;28;20034;-76
2023/02/15 01:49:45;;;;;;;12.27;5.00;;;0.30;86.90;;;;;;5011517;28;20105;-77
2023/02/15 01:52:13;;;;;;;10.57;5.20;;;0.40;85.10;;;;;;5011252;28;20053;-76
2023/02/15 01:54:41;;;;;;;6.80;3.65;;;0.30;94.10;;;;;;5011193;28;20112;-76
2023/02/15 01:57:12;;;;;;;12.57;4.60;;;0.30;87.60;;;;;;5011452;28;20109;-77
2023/02/15 01:59:40;;;;;;;4.93;3.35;;;0.30;89.50;;;;;;5010984;28;20060;-76
2023/02/15 02:02:09;;;;;;;8.98;4.40;;;0.70;96.90;;;;;;5011599;28;20434;-76
2023/02/15 02:04:41;;;;;;;6.88;5.38;;;0.30;93.70;;;;;;5009195;28;20034;-76
2023/02/15 02:07:09;;;;;;;5.03;3.47;;;0.30;88.00;;;;;;5011240;28;20168;-76
2023/02/15 02:09:36;;;;;;;7.57;4.53;;;0.40;88.30;;;;;;5010845;28;20042;-76
2023/02/15 02:12:02;;;;;;;14.55;3.13;;;;;;;;;;5011081;28;20030;-75
2023/02/15 02:14:29;;;;;;;7.35;4.47;;;;;;;;;;5010525;28;20034;-76
2023/02/15 02:17:09;;;;;;;8.23;4.05;;;0.10;86.50;;;;;;5011316;28;20029;-77
2023/02/15 02:20:04;;;;;;;7.80;3.75;;;0.00;95.60;;;;;;5011049;28;20488;-76
2023/02/15 02:23:07;;;;;;;6.80;3.70;;;0.00;87.70;;;;;;5010749;28;20148;-76
2023/02/15 02:26:27;;;;;;;18.55;4.03;;;0.10;88.90;;;;;;5010941;28;20046;-76
2023/02/15 02:29:10;;;;;;;12.50;6.68;;;0.00;90.40;;;;;;4991615;28;20511;-76
2023/02/15 02:32:10;;;;;;;8.07;4.72;;;0.00;99.90;;;;;;5010821;28;20029;-75
2023/02/15 02:34:55;;;;;;;13.10;5.47;;;-0.10;97.90;;;;;;5010668;28;20022;-76
2023/02/15 02:37:45;;;;;;;8.32;5.28;;;-0.20;89.20;;;;;;4996852;28;20026;-76
2023/02/15 02:40:37;;;;;;;16.13;5.70;;;-0.30;99.20;;;;;;5010068;28;20762;-76
2023/02/15 02:43:21;;;;;;;11.20;5.88;;;-0.30;88.80;;;;;;4993757;28;20037;-76
2023/02/15 02:45:58;;;;;;;9.38;5.20;;;-0.40;90.10;;;;;;5001509;28;20037;-76
2023/02/15 02:48:27;;;;;;;5.40;3.92;;;-0.60;91.60;;;;;;5010339;28;20084;-76
2023/02/15 02:50:53;;;;;;;4.50;3.50;;;;;;;;;;5009945;28;20100;-76
2023/02/15 02:53:19;;;;;;;8.80;4.13;;;;;;;;;;5010108;28;20060;-77
2023/02/15 02:55:58;;;;;;;7.32;4.18;;;-0.40;92.10;;;;;;5010285;28;20026;-77
2023/02/15 02:58:46;;;;;;;14.43;5.10;;;-0.40;92.60;;;;;;5010430;28;20029;-76
2023/02/15 03:01:17;;;;;;;;;;;-0.10;90.50;;;;;;5010155;28;20517;-76
2023/02/15 03:03:52;;;;;;;5.63;3.83;;;-0.30;95.80;;;;;;5010208;28;19996;-75
2023/02/15 03:06:39;;;;;;;2.58;1.98;;;-0.10;96.60;;;;;;5009932;28;20014;-76
2023/02/15 03:09:15;;;;;;;7.90;4.25;;;0.00;90.00;;;;;;5010041;28;20040;-76
2023/02/15 03:11:43;;;;;;;8.10;4.75;;;-0.10;89.60;;;;;;5009887;28;20037;-75
2023/02/15 03:14:10;;;;;;;9.48;4.35;;;;;;;;;;5009850;28;20052;-76
2023/02/15 03:16:38;;;;;;;9.05;4.97;;;-0.40;98.80;;;;;;5009689;28;20030;-75
2023/02/15 03:19:15;;;;;;;8.57;5.50;;;-0.30;99.70;;;;;;5008537;28;20041;-76
2023/02/15 03:22:24;;;;;;;8.15;3.50;;;-0.60;91.10;;;;;;5009084;28;20022;-76
2023/02/15 03:24:57;;;;;;;6.20;4.32;;;-0.50;90.80;;;;;;5001351;28;20033;-76
2023/02/15 03:27:32;;;;;;;9.35;5.65;;;-0.70;99.90;;;;;;5008744;28;20399;-76
2023/02/15 03:30:00;;;;;;;13.25;4.10;;;0.00;93.50;;;;;;5009888;28;20014;-77
2023/02/15 03:32:28;;;;;;;8.25;5.05;;;-0.60;99.90;;;;;;5009092;28;20032;-76
2023/02/15 03:34:55;;;;;;;7.00;3.15;;;-0.50;99.90;;;;;;5010119;28;20034;-75
2023/02/15 03:37:31;;;;;;;13.52;5.40;;;0.00;90.40;;;;;;5009282;28;20026;-76
2023/02/15 03:41:08;;;;;;;7.72;4.78;;;;;;;;;;5009938;28;20038;-76
2023/02/15 03:42:45;;;;;;;11.60;3.38;;;-0.70;99.90;;;;;;5009507;28;20038;-76
2023/02/15 03:45:15;;;;;;;9.70;6.00;;;-0.60;90.50;;;;;;5009753;28;20502;-76
2023/02/15 03:47:49;;;;;;;4.43;3.40;;;-0.70;99.90;;;;;;5009305;28;20040;-76
2023/02/15 03:53:10;;;;;;;4.65;3.40;;;-0.70;90.70;;;;;;5009019;28;20076;-76
2023/02/15 03:55:36;;;;;;;18.83;4.18;;;-0.80;99.90;;;;;;5009475;28;20036;-76
2023/02/15 04:03:52;;;;;;;8.93;3.22;;;-0.70;93.20;;;;;;5008776;28;20406;-76
2023/02/15 04:06:17;;;;;;;12.32;5.22;;;-0.60;95.10;;;;;;5009068;28;20037;-76
2023/02/15 04:11:27;;;;;;;9.68;4.97;;;;;;;;;;5009375;28;20168;-75
2023/02/15 04:13:56;;;;;;;13.02;4.78;;;;;;;;;;5008817;28;20105;-76
2023/02/15 04:16:25;;;;;;;6.97;5.25;;;-2.20;90.10;;;;;;5009150;28;20372;-76
2023/02/15 04:27:05;;;;;;;5.25;2.85;;;-0.50;99.90;;;;;;5008588;28;20080;-75
2023/02/15 04:29:31;;;;;;;11.45;5.43;;;;;;;;;;5008511;28;20021;-76
2023/02/15 04:31:59;;;;;;;11.05;6.32;;;-1.10;95.50;;;;;;5009322;28;20456;-76
2023/02/15 04:34:25;;;;;;;5.13;3.55;;;-1.10;93.20;;;;;;5008541;28;20477;-76
2023/02/15 04:36:51;;;;;;;6.43;4.82;;;-1.10;99.90;;;;;;5009136;28;20101;-76
2023/02/15 04:39:18;;;;;;;8.48;4.15;;;-1.20;94.90;;;;;;5012168;28;20125;-75
2023/02/15 04:41:44;;;;;;;5.90;5.18;;;;;;;;;;5012757;28;20034;-76
2023/02/15 04:44:09;;;;;;;8.13;4.25;;;-1.40;94.80;;;;;;5012363;28;20029;-76
2023/02/15 04:46:35;;;;;;;4.05;3.63;;;-0.80;99.90;;;;;;5012921;28;20560;-76
2023/02/15 04:49:01;;;;;;;5.32;3.65;;;-1.20;99.90;;;;;;5012470;28;20080;-76
2023/02/15 04:51:27;;;;;;;7.45;4.32;;;;;;;;;;5012234;28;20045;-76
2023/02/15 04:53:53;;;;;;;8.13;5.50;;;;;;;;;;5012709;28;20026;-76
2023/02/15 04:56:19;;;;;;;13.48;5.55;;;-1.10;99.90;;;;;;5012755;28;20077;-76
2023/02/15 04:58:45;;;;;;;9.98;4.72;;;;;;;;;;5012774;28;20033;-76
2023/02/15 05:01:11;;;;;;;9.85;4.65;;;;;;;;;;5012349;28;20080;-76
2023/02/15 05:03:37;;;;;;;5.20;4.28;;;;;;;;;;5027340;28;20481;-76
2023/02/15 05:06:04;;;;;;;4.55;3.42;;;-0.90;99.90;;;;;;5012253;28;20025;-76
2023/02/15 05:08:30;;;;;;;10.35;5.35;;;;;;;;;;5044064;28;20038;-76
2023/02/15 05:10:56;;;;;;;6.68;3.33;;;-1.20;90.80;;;;;;5012162;28;20076;-76
2023/02/15 05:13:22;;;;;;;3.95;2.80;;;;;;;;;;5027406;28;20026;-75
2023/02/15 05:15:48;;;;;;;6.97;2.45;;;-1.10;99.90;;;;;;5012248;28;20026;-76
2023/02/15 05:18:15;;;;;;;10.55;2.75;;;;;;;;;;5011962;28;20120;-76
2023/02/15 05:20:41;;;;;;;11.57;5.00;;;;;;;;;;5011858;28;20026;-76
2023/02/15 05:23:07;;;;;;;5.88;3.05;;;;;;;;;;5012187;28;20083;-76
2023/02/15 05:28:20;;;;;;;7.20;4.20;;;;;;;;;;5011974;28;20048;-75
2023/02/15 05:30:51;;;;;;;5.93;1.70;;;-1.40;91.30;;;;;;5011884;28;20017;-76
2023/02/15 05:33:17;;;;;;;6.03;3.22;;;-1.40;91.50;;;;;;5043747;28;20088;-76
2023/02/15 05:35:43;;;;;;;7.53;4.68;;;-0.90;95.40;;;;;;5011874;28;20376;-76
2023/02/15 05:38:09;;;;;;;6.75;4.75;;;;;;;;;;5011782;28;20026;-76
2023/02/15 05:40:35;;;;;;;5.25;3.33;;;-0.40;93.10;;;;;;5011916;28;20379;-76
2023/02/15 05:43:01;;;;;;;9.15;4.03;;;;;;;;;;5009960;28;20113;-77
2023/02/15 05:45:27;;;;;;;7.53;4.65;;;;;;;;;;5012093;28;20033;-76
2023/02/15 05:47:52;;;;;;;9.95;4.88;;;-1.40;95.10;;;;;;5010903;28;20036;-76
2023/02/15 05:50:19;;;;;;;8.15;3.35;;;;;;;;;;5026115;28;20454;-76
2023/02/15 05:52:45;;;;;;;5.95;3.13;;;;;;;;;;5010783;28;20800;-76
2023/02/15 05:55:11;;;;;;;6.22;4.00;;;;;;;;;;5011535;28;20538;-76
2023/02/15 05:57:37;;;;;;;8.85;3.67;;;;;;;;;;5011352;28;20038;-76
2023/02/15 06:00:04;;;;;;;16.40;5.25;;;-1.50;98.90;;;;;;5011446;28;20479;-76
2023/02/15 06:02:33;;;;;;;10.27;6.22;;;-1.60;92.20;;;;;;5009543;28;20029;-76
2023/02/15 06:04:59;;;;;;;11.57;5.57;;;;;;;;;;5011086;28;20531;-75
2023/02/15 06:07:25;;;;;;;9.95;4.65;;;;;;;;;;5011225;28;20124;-76
2023/02/15 06:09:51;;;;;;;8.50;4.63;;;-1.80;99.90;;;;;;5011154;28;20456;-76
2023/02/15 06:12:17;;;;;;;7.72;4.82;;;;;;;;;;5010915;28;20032;-76
2023/02/15 06:14:42;;;;;;;8.65;4.47;;;-1.90;95.50;;;;;;5011148;28;20073;-76
2023/02/15 06:17:08;;;;;;;4.95;3.50;;;;;;;;;;5010639;28;20491;-76
2023/02/15 06:19:34;;;;;;;4.93;2.88;;;;;;;;;;5011343;28;20034;-76
2023/02/15 06:22:00;;;;;;;8.63;4.90;;;;;;;;;;5010749;28;20640;-75
2023/02/15 06:24:26;;;;;;;6.13;4.63;;;;;;;;;;5010696;28;20029;-76
2023/02/15 06:26:52;;;;;;;11.38;4.25;;;;;;;;;;5010896;28;20463;-76
2023/02/15 06:29:18;;;;;;;10.95;4.68;;;;;;;;;;5010522;28;20029;-75
2023/02/15 06:31:44;;;;;;;8.65;5.28;;;;;;;;;;5011268;28;20535;-76
2023/02/15 06:34:10;;;;;;;4.80;4.40;;;;;;;;;;5010422;28;20057;-76
2023/02/15 06:36:36;;;;;;;10.48;4.30;;;;;;;;;;5011154;28;20107;-75
2023/02/15 06:39:03;;;;;;;7.15;5.28;;;-1.90;93.20;;;;;;5010207;28;20053;-75
2023/02/15 06:41:29;;;;;;;7.15;2.75;;;;;;;;;;5010921;28;20403;-76
2023/02/15 06:43:55;;;;;;;8.68;4.93;;;;;;;;;;5010074;28;20022;-75
2023/02/15 06:46:21;;;;;;;5.55;3.28;;;;;;;;;;5010817;28;20026;-76
2023/02/15 06:48:47;;;;;;;5.22;3.88;;;-1.60;99.90;;;;;;5010155;28;20505;-76
2023/02/15 06:51:13;;;;;;;10.00;3.58;;;;;;;;;;5010057;28;20050;-75
2023/02/15 06:53:42;;;;;;;4.57;3.22;;;;;;;;;;5009901;28;20029;-75
2023/02/15 06:56:09;;;;;;;9.95;5.00;;;-1.40;99.90;;;;;;5010644;28;20398;-76
2023/02/15 06:58:38;;;;;;;8.95;7.18;;;-1.40;91.20;;;;;;5009931;28;20026;-76
2023/02/15 07:01:04;;;;;;;16.67;8.35;;;-1.50;99.90;;;;;;5006421;28;20502;-76
2023/02/15 07:03:30;;;;;;;6.38;4.93;;;-1.50;99.90;;;;;;5009830;28;20028;-75
2023/02/15 07:05:57;;;;;;;8.10;5.15;;;-1.60;91.70;;;;;;5010342;28;20387;-76
2023/02/15 07:08:24;;;;;;;15.93;6.85;;;-1.60;99.90;;;;;;5010167;28;20073;-76
2023/02/15 07:10:50;;;;;;;18.30;6.07;;;;;;;;;;5009953;28;20113;-76
2023/02/15 07:13:16;;;;;;;6.10;3.70;;;;;;;;;;5010192;28;20419;-76
2023/02/15 07:15:42;;;;;;;6.47;4.45;;;;;;;;;;5009533;28;20028;-76
2023/02/15 07:18:10;;;;;;;11.13;6.70;;;;;;;;;;5009896;28;20029;-76
2023/02/15 07:20:36;;;;;;;40.78;19.17;;;;;;;;;;5009072;28;20025;-75
2023/02/15 07:23:11;;;;;;;15.32;8.82;;;-1.50;99.90;;;;;;5106475;27;20426;-76
2023/02/15 07:25:37;;;;;;;19.45;10.45;;;;;;;;;;5106297;28;20039;-76
2023/02/15 07:28:04;;;;;;;25.92;8.77;;;-1.20;90.10;;;;;;5106473;28;20077;-76
2023/02/15 07:30:30;;;;;;;16.83;6.90;;;;;;;;;;5106041;28;20063;-76
2023/02/15 07:35:56;;;;;;;9.85;6.30;;;-1.40;99.90;;;;;;5106467;28;20039;-76
2023/02/15 07:38:23;;;;;;;6.57;4.97;;;;;;;;;;5106263;28;20529;-77
2023/02/15 07:40:49;;;;;;;15.32;10.23;;;;;;;;;;5106102;28;20016;-76
2023/02/15 07:43:15;;;;;;;19.73;9.82;;;;;;;;;;5106014;28;20776;-77
2023/02/15 07:45:41;;;;;;;10.88;5.93;;;;;;;;;;5104541;28;20024;-76
2023/02/15 07:48:07;;;;;;;12.45;6.03;;;-0.80;88.80;;;;;;5106432;28;20046;-76
2023/02/15 07:50:33;;;;;;;12.10;6.25;;;;;;;;;;5105504;28;20137;-76
2023/02/15 07:53:02;;;;;;;18.88;9.95;;;-0.40;97.80;;;;;;5105825;28;20038;-76
2023/02/15 07:55:28;;;;;;;26.02;10.45;;;;;;;;;;5105831;28;20024;-76
2023/02/15 07:57:53;;;;;;;33.22;13.20;;;7.20;78.30;;;;;;5105756;28;20023;-77
2023/02/15 08:00:24;;;;;;;34.20;13.32;;;14.40;54.20;;;;;;5105988;28;20050;-76
2023/02/15 08:03:12;;;;;;;25.73;14.75;;;20.70;41.90;;;;;;5105453;28;20127;-76
2023/02/15 08:05:42;;;;;;;37.97;20.60;;;25.70;35.50;;;;;;5105492;28;20039;-77
2023/02/15 08:08:08;;;;;;;42.03;21.73;;;29.30;43.00;;;;;;5105134;28;20453;-77
2023/02/15 08:13:20;;;;;;;18.48;11.80;;;;;;;;;;5104599;28;20133;-77
2023/02/15 08:15:50;;;;;;;13.40;8.98;;;34.70;27.90;;;;;;5105521;28;20024;-77
2023/02/15 08:18:16;;;;;;;13.50;7.95;;;;;;;;;;5105639;28;20023;-78
2023/02/15 08:20:42;;;;;;;10.60;7.30;;;;;;;;;;5105432;28;20034;-77
2023/02/15 08:23:08;;;;;;;11.48;8.32;;;;;;;;;;5104770;28;20039;-77
2023/02/15 08:25:34;;;;;;;13.47;8.30;;;;;;;;;;5105684;28;20034;-78
2023/02/15 08:28:00;;;;;;;25.42;13.68;;;;;;;;;;5105238;28;20028;-78
2023/02/15 08:30:26;;;;;;;26.17;16.10;;;;;;;;;;5105721;28;20546;-77
2023/02/15 08:32:52;;;;;;;15.50;10.60;;;40.70;26.50;;;;;;5099082;28;20282;-78
2023/02/15 08:35:17;;;;;;;21.93;11.23;;;41.30;30.20;;;;;;5092091;28;20101;-78
2023/02/15 08:37:43;;;;;;;19.53;10.23;;;41.90;29.80;;;;;;5091521;28;20016;-78
2023/02/15 08:40:09;;;;;;;25.47;8.43;;;41.80;26.70;;;;;;5091862;28;20031;-78
2023/02/15 08:42:34;;;;;;;14.30;7.25;;;42.30;28.80;;;;;;5091449;28;20058;-78
2023/02/15 08:45:01;;;;;;;13.77;7.78;;;;;;;;;;5091869;28;20028;-78
2023/02/15 08:47:27;;;;;;;17.33;9.88;;;;;;;;;;5091625;28;20016;-78
2023/02/15 08:49:53;;;;;;;15.52;9.68;;;;;;;;;;5091635;28;20024;-78
2023/02/15 08:52:18;;;;;;;19.10;10.10;;;37.40;26.20;;;;;;5090477;28;20070;-78
2023/02/15 08:54:44;;;;;;;13.73;7.40;;;;;;;;;;5091332;28;20058;-77
2023/02/15 08:57:10;;;;;;;13.75;10.00;;;;;;;;;;5089940;28;20028;-77
2023/02/15 08:59:36;;;;;;;17.55;11.80;;;;;;;;;;5089737;28;20081;-76
2023/02/15 09:02:03;;;;;;;16.00;9.93;;;;;;;;;;5091570;28;20040;-78
2023/02/15 09:04:29;;;;;;;17.70;9.45;;;;;;;;;;5090941;28;20039;-78
2023/02/15 09:06:55;;;;;;;13.40;8.57;;;;;;;;;;5091120;28;20024;-77
2023/02/15 09:09:21;;;;;;;;;;;42.10;21.10;;;;;;5090854;28;20032;-78
2023/02/15 09:11:49;;;;;;;12.70;8.55;;;43.10;24.10;;;;;;5091095;28;19908;-77
2023/02/15 09:14:17;;;;;;;15.32;8.52;;;43.10;24.80;;;;;;5090828;28;20031;-77
2023/02/15 09:16:48;;;;;;;12.93;8.02;;;43.70;27.10;;;;;;5091100;28;20374;-78
2023/02/15 09:19:14;;;;;;;13.35;8.85;;;;;;;;;;5090666;28;20149;-78
2023/02/15 09:21:41;;;;;;;13.63;10.55;;;44.10;20.00;;;;;;5090382;28;20472;-77
2023/02/15 09:24:08;;;;;;;;;;;44.10;20.40;;;;;;5090608;28;20027;-78
2023/02/15 09:26:37;;;;;;;13.88;10.63;;;44.70;19.90;;;;;;5091089;28;19904;-78
2023/02/15 09:29:03;;;;;;;17.63;12.35;;;44.70;26.60;;;;;;5090215;28;20024;-77
2023/02/15 09:31:37;;;;;;;14.10;10.10;;;44.20;20.00;;;;;;5091043;28;20024;-77
2023/02/15 09:34:03;;;;;;;11.77;8.23;;;43.70;26.70;;;;;;5089042;28;20039;-77
2023/02/15 09:36:32;;;;;;;11.65;8.75;;;43.90;20.00;;;;;;5091054;28;20046;-77
2023/02/15 09:39:10;;;;;;;12.35;8.52;;;43.90;20.00;;;;;;5088730;28;20107;-78
2023/02/15 09:41:53;;;;;;;14.10;9.13;;;43.70;19.80;;;;;;5090660;28;20028;-77
2023/02/15 09:44:33;;;;;;;20.27;14.27;;;43.80;19.80;;;;;;5089285;28;20020;-77
2023/02/15 09:47:36;;;;;;;16.08;9.68;;;43.40;19.80;;;;;;5090432;28;20573;-77
2023/02/15 09:50:27;;;;;;;12.00;8.30;;;43.70;19.80;;;;;;5090089;28;20504;-78
2023/02/15 09:53:29;;;;;;;11.57;8.45;;;43.90;26.70;;;;;;5089793;28;20027;-77
2023/02/15 09:56:03;;;;;;;15.38;8.23;;;42.30;20.00;;;;;;5090127;28;20408;-77
2023/02/15 09:58:44;;;;;;;14.32;9.18;;;42.30;19.90;;;;;;5089901;28;20040;-78
2023/02/15 10:01:10;;;;;;;10.32;7.72;;;;;;;;;;5089568;28;20035;-78
2023/02/15 10:04:13;;;;;;;13.15;7.80;;;43.10;19.60;;;;;;5090217;28;20524;-77
2023/02/15 10:06:56;;;;;;;12.30;8.52;;;43.80;27.00;;;;;;5088326;28;20024;-78
2023/02/15 10:10:03;;;;;;;9.25;6.53;;;42.20;19.70;;;;;;5070393;28;20089;-78
2023/02/15 10:12:46;;;;;;;11.02;6.47;;;42.40;19.90;;;;;;5090022;28;20099;-78
2023/02/15 10:15:30;;;;;;;8.10;5.95;;;43.40;19.70;;;;;;5090060;28;20085;-78
2023/02/15 10:18:23;;;;;;;8.80;5.97;;;44.00;19.70;;;;;;5090110;28;20012;-78
2023/02/15 10:21:25;;;;;;;9.57;6.45;;;44.80;20.80;;;;;;5089044;28;20028;-77
2023/02/15 10:24:20;;;;;;;8.68;5.80;;;46.30;26.80;;;;;;5089736;28;20113;-77
2023/02/15 10:26:47;;;;;;;9.25;5.80;;;46.20;19.30;;;;;;5081150;28;20444;-77
2023/02/15 10:29:22;;;;;;;9.32;5.70;;;46.30;26.20;;;;;;5089774;28;20103;-77
2023/02/15 10:31:51;;;;;;;9.98;5.38;;;46.80;19.40;;;;;;5089301;28;20024;-78
2023/02/15 10:34:38;;;;;;;6.00;5.07;;;47.00;19.40;;;;;;5089719;28;20031;-78
2023/02/15 10:37:19;;;;;;;9.45;5.03;;;47.20;19.40;;;;;;5088890;28;20404;-78
2023/02/15 10:40:03;;;;;;;8.73;4.90;;;47.60;22.70;;;;;;5089281;28;20115;-78
2023/02/15 10:42:54;;;;;;;5.97;4.20;;;47.10;19.20;;;;;;5088930;28;20047;-77
2023/02/15 10:45:47;;;;;;;8.07;4.75;;;46.70;19.20;;;;;;5069602;28;20321;-78
2023/02/15 10:48:39;;;;;;;5.53;4.65;;;46.20;26.40;;;;;;5088109;28;20028;-77
2023/02/15 10:51:22;;;;;;;10.00;5.38;;;45.90;20.80;;;;;;5088575;28;20032;-78
2023/02/15 10:54:18;;;;;;;7.30;5.47;;;44.70;19.70;;;;;;5077710;28;20054;-77
2023/02/15 10:56:46;;;;;;;8.30;5.07;;;42.90;19.20;;;;;;5082482;28;20032;-78
2023/02/15 10:59:42;;;;;;;9.07;5.32;;;40.00;19.40;;;;;;5089057;28;20028;-77
2023/02/15 11:02:39;;;;;;;7.47;4.90;;;38.80;20.00;;;;;;5088908;28;20034;-77
2023/02/15 11:05:23;;;;;;;10.38;5.15;;;39.50;28.50;;;;;;5088898;28;20039;-78
2023/02/15 11:07:52;;;;;;;10.25;5.05;;;38.80;20.00;;;;;;5088554;28;20012;-77
2023/02/15 11:10:29;;;;;;;7.60;5.47;;;38.30;20.30;;;;;;5089195;28;20032;-77
2023/02/15 11:12:57;;;;;;;7.88;5.82;;;39.20;20.10;;;;;;5086074;28;20097;-77
2023/02/15 11:15:34;;;;;;;7.72;5.28;;;40.30;19.80;;;;;;5088659;28;20031;-77
2023/02/15 11:18:09;;;;;;;9.30;6.43;;;40.70;19.80;;;;;;5088689;28;20119;-77
2023/02/15 11:21:00;;;;;;;8.85;4.95;;;39.60;28.10;;;;;;5088756;28;20043;-77
2023/02/15 11:23:27;;;;;;;10.80;6.10;;;35.20;20.00;;;;;;5088567;28;20032;-77
2023/02/15 11:26:10;;;;;;;10.20;5.85;;;32.80;21.30;;;;;;5089060;28;20101;-77
2023/02/15 11:28:47;;;;;;;7.28;5.35;;;34.20;21.30;;;;;;5088494;28;20098;-77
2023/02/15 11:31:25;;;;;;;11.23;7.00;;;36.50;30.50;;;;;;5088422;28;20791;-77
2023/02/15 11:34:11;;;;;;;11.73;6.90;;;38.00;26.60;;;;;;5088256;28;20021;-77
2023/02/15 11:36:41;;;;;;;9.02;6.40;;;36.10;27.20;;;;;;5089186;28;20032;-78
2023/02/15 11:39:13;;;;;;;11.13;6.00;;;34.90;20.80;;;;;;5088407;28;20025;-77
2023/02/15 11:41:44;;;;;;;11.43;6.57;;;33.80;21.10;;;;;;5088808;28;20036;-78
2023/02/15 11:44:46;;;;;;;9.35;6.18;;;32.70;21.40;;;;;;5088473;28;20397;-77
2023/02/15 11:47:12;;;;;;;10.05;5.45;;;;;;;;;;5088426;28;20438;-77
2023/02/15 11:49:38;;;;;;;7.67;5.40;;;30.30;33.90;;;;;;5088322;28;20021;-76
2023/02/15 11:52:07;;;;;;;6.75;4.93;;;29.40;22.20;;;;;;5079191;28;20067;-77
2023/02/15 11:54:36;;;;;;;8.50;6.18;;;28.20;34.70;;;;;;5087951;28;20047;-77
2023/02/15 11:57:18;;;;;;;14.30;6.13;;;26.80;23.40;;;;;;5088702;28;20035;-77
2023/02/15 11:59:50;;;;;;;9.10;7.15;;;25.40;24.10;;;;;;5088284;28;20027;-77
2023/02/15 12:02:18;;;;;;;10.60;5.97;;;24.40;24.90;;;;;;5088548;28;20043;-77
2023/02/15 12:04:59;;;;;;;10.02;5.68;;;23.30;25.70;;;;;;5087443;28;20016;-77
2023/02/15 12:07:51;;;;;;;11.45;5.60;;;22.30;31.50;;;;;;5088322;28;20508;-77
2023/02/15 12:10:19;;;;;;;10.48;5.82;;;21.30;27.10;;;;;;5091602;28;20036;-77
2023/02/15 12:12:46;;;;;;;8.52;6.20;;;;;;;;;;5090678;28;20028;-77
2023/02/15 12:15:13;;;;;;;10.95;6.28;;;21.80;27.70;;;;;;5091718;28;20025;-77
2023/02/15 12:17:39;;;;;;;14.38;6.75;;;;;;;;;;5092084;28;20024;-77
2023/02/15 12:20:13;;;;;;;15.57;7.40;;;21.90;27.80;;;;;;5090497;28;20084;-77
2023/02/15 12:22:46;;;;;;;10.98;6.88;;;21.50;28.40;;;;;;5091420;28;20048;-76
2023/02/15 12:25:22;;;;;;;13.68;8.20;;;20.60;29.30;;;;;;5091938;28;20039;-77
2023/02/15 12:27:49;;;;;;;11.05;6.88;;;19.60;30.00;;;;;;5091767;28;20037;-76
2023/02/15 12:30:21;;;;;;;11.67;7.10;;;19.10;38.10;;;;;;5091696;28;20032;-76
2023/02/15 12:33:22;;;;;;;11.75;6.88;;;18.80;30.80;;;;;;5091672;28;20606;-77
2023/02/15 12:35:54;;;;;;;15.95;6.93;;;18.50;47.70;;;;;;5028483;28;20041;-77
2023/02/15 12:38:25;;;;;;;12.30;6.10;;;18.70;31.50;;;;;;5028851;28;20029;-77
2023/02/15 12:41:24;;;;;;;16.48;7.80;;;18.90;31.20;;;;;;5028443;28;20033;-77
2023/02/15 12:44:03;;;;;;;12.95;7.63;;;19.20;31.20;;;;;;5004411;28;20133;-76
2023/02/15 12:46:29;;;;;;;16.35;7.97;;;;;;;;;;5024103;28;20044;-77
2023/02/15 12:49:28;;;;;;;16.02;7.65;;;19.60;31.70;;;;;;5028666;28;20410;-77
2023/02/15 12:51:56;;;;;;;16.55;8.20;;;19.10;32.30;;;;;;4959012;28;20027;-77
2023/02/15 12:54:22;;;;;;;14.95;7.40;;;;;;;;;;4951509;28;20043;-77
2023/02/15 12:56:48;;;;;;;15.73;8.35;;;;;;;;;;4950432;29;20408;-78
2023/02/15 12:59:20;;;;;;;11.27;7.78;;;20.30;31.70;;;;;;4950653;29;20243;-77
2023/02/15 13:01:46;;;;;;;14.90;8.80;;;21.10;31.40;;;;;;4950048;29;20070;-77
2023/02/15 13:04:28;;;;;;;14.30;8.80;;;21.60;30.70;;;;;;4950546;29;20035;-77
2023/02/15 13:07:00;;;;;;;11.65;6.10;;;21.50;30.30;;;;;;4949455;29;20041;-77
2023/02/15 13:09:32;;;;;;;12.23;7.13;;;21.10;30.50;;;;;;4950352;28;20032;-77
2023/02/15 13:12:18;;;;;;;13.80;7.28;;;20.60;30.90;;;;;;4965980;28;20035;-77
2023/02/15 13:14:47;;;;;;;10.30;7.32;;;20.60;31.30;;;;;;5020510;28;20100;-77
2023/02/15 13:17:15;;;;;;;13.27;6.97;;;20.40;31.40;;;;;;5021448;28;20030;-77
2023/02/15 13:19:54;;;;;;;15.93;7.70;;;20.00;32.20;;;;;;5028261;28;20035;-77
2023/02/15 13:22:32;;;;;;;16.45;8.15;;;19.30;38.00;;;;;;5026505;28;20114;-76
2023/02/15 13:25:04;;;;;;;21.77;8.50;;;17.90;34.70;;;;;;5028259;28;20029;-77
2023/02/15 13:27:37;;;;;;;22.05;9.15;;;17.90;35.70;;;;;;5058640;28;20044;-76
2023/02/15 13:30:38;;;;;;;23.63;8.43;;;18.00;36.00;;;;;;5090173;28;20023;-77
2023/02/15 13:33:08;;;;;;;12.82;7.57;;;18.40;35.90;;;;;;5075293;28;20036;-77
2023/02/15 13:35:44;;;;;;;20.45;8.63;;;19.00;35.40;;;;;;5089262;28;20039;-77
2023/02/15 13:38:16;;;;;;;26.77;9.32;;;20.40;35.20;;;;;;5090407;28;20090;-76
2023/02/15 13:41:04;;;;;;;16.30;8.43;;;20.10;34.10;;;;;;5090924;28;20023;-77
2023/02/15 13:44:12;;;;;;;23.17;9.20;;;20.40;33.90;;;;;;5090313;28;20089;-77
2023/02/15 13:47:18;;;;;;;16.73;9.25;;;20.80;33.60;;;;;;5085562;28;20435;-77
2023/02/15 13:49:47;;;;;;;15.30;8.60;;;20.80;38.00;;;;;;5027476;28;20109;-77
2023/02/15 13:52:13;;;;;;;13.45;8.05;;;;;;;;;;5026829;28;20084;-78
2023/02/15 13:55:01;;;;;;;16.80;8.48;;;20.80;49.30;;;;;;5010693;28;20372;-77
2023/02/15 13:57:39;;;;;;;14.85;8.25;;;20.60;34.00;;;;;;5027320;28;20022;-77
2023/02/15 14:00:11;;;;;;;;;;;20.60;34.00;;;;;;5027710;28;20526;-77
2023/02/15 14:02:51;;;;;;;15.48;7.63;;;20.70;33.90;;;;;;5026581;28;20390;-77
2023/02/15 14:05:48;;;;;;;19.88;8.93;;;20.80;49.40;;;;;;5027266;28;20026;-76
2023/02/15 14:08:14;;;;;;;22.05;8.90;;;;;;;;;;5010186;28;20067;-77
2023/02/15 14:10:40;;;;;;;16.83;9.52;;;;;;;;;;5026950;28;20790;-76